sensor_id;sensor_type;location;lat;lon;timestamp;temperature;humidity
1594;DHT22;790;47.000;16.084;2023-05-09T00:00:24;10.70;99.90
1594;DHT22;790;47.000;16.084;2023-05-09T00:03:11;10.70;99.90
1594;DHT22;790;47.000;16.084;2023-05-09T00:05:57;10.70;99.90
1594;DHT22;790;47.000;16.084;2023-05-09T00:08:43;10.80;99.90
1594;DHT22;790;47.000;16.084;2023-05-09T00:11:28;10.80;99.90
1594;DHT22;790;47.000;16.084;2023-05-09T00:14:14;10.80;99.90
1594;DHT22;790;47.000;16.084;2023-05-09T00:17:01;10.80;99.90
1594;DHT22;790;47.000;16.084;2023-05-09T00:19:48;10.80;99.90
1594;DHT22;790;47.000;16.084;2023-05-09T00:22:36;10.80;99.90
1594;DHT22;790;47.000;16.084;2023-05-09T00:25:22;10.90;99.90
1594;DHT22;790;47.000;16.084;2023-05-09T00:28:08;10.90;99.90
1594;DHT22;790;47.000;16.084;2023-05-09T00:30:54;11.00;99.90
1594;DHT22;790;47.000;16.084;2023-05-09T00:33:39;11.00;99.90
1594;DHT22;790;47.000;16.084;2023-05-09T00:36:27;11.00;99.90
1594;DHT22;790;47.000;16.084;2023-05-09T00:39:12;11.10;99.90
1594;DHT22;790;47.000;16.084;2023-05-09T00:42:02;11.10;99.90
1594;DHT22;790;47.000;16.084;2023-05-09T00:44:47;11.00;99.90
1594;DHT22;790;47.000;16.084;2023-05-09T00:47:33;10.90;99.90
1594;DHT22;790;47.000;16.084;2023-05-09T00:50:19;10.90;99.90
1594;DHT22;790;47.000;16.084;2023-05-09T00:53:08;10.90;99.90
1594;DHT22;790;47.000;16.084;2023-05-09T00:55:54;10.90;99.90
1594;DHT22;790;47.000;16.084;2023-05-09T00:58:41;11.00;99.90
1594;DHT22;790;47.000;16.084;2023-05-09T01:01:27;10.90;99.90
1594;DHT22;790;47.000;16.084;2023-05-09T01:04:13;10.90;99.90
1594;DHT22;790;47.000;16.084;2023-05-09T01:07:04;10.80;99.90
1594;DHT22;790;47.000;16.084;2023-05-09T01:10:08;10.70;99.90
1594;DHT22;790;47.000;16.084;2023-05-09T01:13:00;10.70;99.90
1594;DHT22;790;47.000;16.084;2023-05-09T01:15:53;10.70;99.90
1594;DHT22;790;47.000;16.084;2023-05-09T01:18:46;10.80;99.90
1594;DHT22;790;47.000;16.084;2023-05-09T01:21:34;10.70;99.90
1594;DHT22;790;47.000;16.084;2023-05-09T01:27:58;10.70;99.90
1594;DHT22;790;47.000;16.084;2023-05-09T01:30:50;10.70;99.90
1594;DHT22;790;47.000;16.084;2023-05-09T01:33:39;10.60;99.90
1594;DHT22;790;47.000;16.084;2023-05-09T01:36:29;10.70;99.90
1594;DHT22;790;47.000;16.084;2023-05-09T01:39:17;10.70;99.90
1594;DHT22;790;47.000;16.084;2023-05-09T01:42:06;10.70;99.90
1594;DHT22;790;47.000;16.084;2023-05-09T01:44:55;10.70;99.90
1594;DHT22;790;47.000;16.084;2023-05-09T01:47:44;10.70;99.90
1594;DHT22;790;47.000;16.084;2023-05-09T01:50:32;10.80;99.90
1594;DHT22;790;47.000;16.084;2023-05-09T01:53:21;10.70;99.90
1594;DHT22;790;47.000;16.084;2023-05-09T01:56:08;10.70;99.90
1594;DHT22;790;47.000;16.084;2023-05-09T01:58:55;10.70;99.90
1594;DHT22;790;47.000;16.084;2023-05-09T02:01:41;10.70;99.90
1594;DHT22;790;47.000;16.084;2023-05-09T02:04:29;10.60;99.90
1594;DHT22;790;47.000;16.084;2023-05-09T02:07:16;10.60;99.90
1594;DHT22;790;47.000;16.084;2023-05-09T02:10:03;10.60;99.90
1594;DHT22;790;47.000;16.084;2023-05-09T02:12:49;10.50;99.90
1594;DHT22;790;47.000;16.084;2023-05-09T02:15:36;10.50;99.90
1594;DHT22;790;47.000;16.084;2023-05-09T02:18:21;10.40;99.90
1594;DHT22;790;47.000;16.084;2023-05-09T02:21:09;10.40;99.90
1594;DHT22;790;47.000;16.084;2023-05-09T02:23:57;10.40;99.90
1594;DHT22;790;47.000;16.084;2023-05-09T02:26:43;10.40;99.90
1594;DHT22;790;47.000;16.084;2023-05-09T02:29:37;10.30;99.90
1594;DHT22;790;47.000;16.084;2023-05-09T02:32:27;10.20;99.90
1594;DHT22;790;47.000;16.084;2023-05-09T02:35:14;10.20;99.90
1594;DHT22;790;47.000;16.084;2023-05-09T02:38:04;10.10;99.90
1594;DHT22;790;47.000;16.084;2023-05-09T02:40:50;10.00;99.90
1594;DHT22;790;47.000;16.084;2023-05-09T02:43:36;10.00;99.90
1594;DHT22;790;47.000;16.084;2023-05-09T02:46:23;10.00;99.90
1594;DHT22;790;47.000;16.084;2023-05-09T02:49:08;9.90;99.90
1594;DHT22;790;47.000;16.084;2023-05-09T02:51:54;9.90;99.90
1594;DHT22;790;47.000;16.084;2023-05-09T02:54:41;9.80;99.90
1594;DHT22;790;47.000;16.084;2023-05-09T02:57:27;9.80;99.90
1594;DHT22;790;47.000;16.084;2023-05-09T03:00:13;9.70;99.90
1594;DHT22;790;47.000;16.084;2023-05-09T03:03:02;9.60;99.90
1594;DHT22;790;47.000;16.084;2023-05-09T03:05:47;9.60;99.90
1594;DHT22;790;47.000;16.084;2023-05-09T03:08:33;9.60;99.90
1594;DHT22;790;47.000;16.084;2023-05-09T03:11:21;9.60;99.90
1594;DHT22;790;47.000;16.084;2023-05-09T03:14:07;9.40;99.90
1594;DHT22;790;47.000;16.084;2023-05-09T03:16:54;9.40;99.90
1594;DHT22;790;47.000;16.084;2023-05-09T03:19:40;9.40;99.90
1594;DHT22;790;47.000;16.084;2023-05-09T03:22:26;9.40;99.90
1594;DHT22;790;47.000;16.084;2023-05-09T03:25:12;9.50;99.90
1594;DHT22;790;47.000;16.084;2023-05-09T03:28:00;9.60;99.90
1594;DHT22;790;47.000;16.084;2023-05-09T03:30:45;9.60;99.90
1594;DHT22;790;47.000;16.084;2023-05-09T03:33:31;9.60;99.90
1594;DHT22;790;47.000;16.084;2023-05-09T03:36:17;9.60;99.90
1594;DHT22;790;47.000;16.084;2023-05-09T03:39:03;9.50;99.90
1594;DHT22;790;47.000;16.084;2023-05-09T03:41:49;9.60;99.90
1594;DHT22;790;47.000;16.084;2023-05-09T03:44:37;9.70;99.90
1594;DHT22;790;47.000;16.084;2023-05-09T03:47:23;9.80;99.90
1594;DHT22;790;47.000;16.084;2023-05-09T03:50:09;9.80;99.90
1594;DHT22;790;47.000;16.084;2023-05-09T03:52:55;9.80;99.90
1594;DHT22;790;47.000;16.084;2023-05-09T03:55:40;9.90;99.90
1594;DHT22;790;47.000;16.084;2023-05-09T03:58:27;9.90;99.90
1594;DHT22;790;47.000;16.084;2023-05-09T04:01:14;10.00;99.90
1594;DHT22;790;47.000;16.084;2023-05-09T04:04:00;10.00;99.90
1594;DHT22;790;47.000;16.084;2023-05-09T04:06:46;10.00;99.90
1594;DHT22;790;47.000;16.084;2023-05-09T04:09:34;10.00;99.90
1594;DHT22;790;47.000;16.084;2023-05-09T04:12:20;10.00;99.90
1594;DHT22;790;47.000;16.084;2023-05-09T04:15:07;10.10;99.90
1594;DHT22;790;47.000;16.084;2023-05-09T04:17:56;10.10;99.90
1594;DHT22;790;47.000;16.084;2023-05-09T04:20:42;10.20;99.90
1594;DHT22;790;47.000;16.084;2023-05-09T04:23:28;10.20;99.90
1594;DHT22;790;47.000;16.084;2023-05-09T04:26:14;10.30;99.90
1594;DHT22;790;47.000;16.084;2023-05-09T04:29:01;10.30;99.90
1594;DHT22;790;47.000;16.084;2023-05-09T04:31:47;10.30;99.90
1594;DHT22;790;47.000;16.084;2023-05-09T04:34:34;10.40;99.90
1594;DHT22;790;47.000;16.084;2023-05-09T04:37:20;10.40;99.90
1594;DHT22;790;47.000;16.084;2023-05-09T04:40:07;10.50;99.90
1594;DHT22;790;47.000;16.084;2023-05-09T04:42:53;10.50;99.90
1594;DHT22;790;47.000;16.084;2023-05-09T04:45:40;10.60;99.90
1594;DHT22;790;47.000;16.084;2023-05-09T04:48:27;10.60;99.90
1594;DHT22;790;47.000;16.084;2023-05-09T04:51:17;10.70;99.90
1594;DHT22;790;47.000;16.084;2023-05-09T04:54:03;10.70;99.90
1594;DHT22;790;47.000;16.084;2023-05-09T04:56:49;10.80;99.90
1594;DHT22;790;47.000;16.084;2023-05-09T04:59:38;10.90;99.90
1594;DHT22;790;47.000;16.084;2023-05-09T05:02:24;10.90;99.90
1594;DHT22;790;47.000;16.084;2023-05-09T05:05:10;11.00;99.90
1594;DHT22;790;47.000;16.084;2023-05-09T05:07:57;11.10;99.90
1594;DHT22;790;47.000;16.084;2023-05-09T05:10:43;11.10;99.90
1594;DHT22;790;47.000;16.084;2023-05-09T05:13:29;11.20;99.90
1594;DHT22;790;47.000;16.084;2023-05-09T05:16:16;11.30;99.90
1594;DHT22;790;47.000;16.084;2023-05-09T05:19:01;11.30;99.90
1594;DHT22;790;47.000;16.084;2023-05-09T05:22:07;11.40;99.90
1594;DHT22;790;47.000;16.084;2023-05-09T05:25:02;11.40;99.90
1594;DHT22;790;47.000;16.084;2023-05-09T05:27:48;11.50;99.90
1594;DHT22;790;47.000;16.084;2023-05-09T05:30:34;11.60;99.90
1594;DHT22;790;47.000;16.084;2023-05-09T05:33:22;11.60;99.90
1594;DHT22;790;47.000;16.084;2023-05-09T05:36:08;11.60;99.90
1594;DHT22;790;47.000;16.084;2023-05-09T05:39:25;11.70;99.90
1594;DHT22;790;47.000;16.084;2023-05-09T05:42:17;11.70;99.90
1594;DHT22;790;47.000;16.084;2023-05-09T05:45:12;11.80;99.90
1594;DHT22;790;47.000;16.084;2023-05-09T05:47:58;11.80;99.90
1594;DHT22;790;47.000;16.084;2023-05-09T05:50:47;11.80;99.90
1594;DHT22;790;47.000;16.084;2023-05-09T05:53:33;11.90;99.90
1594;DHT22;790;47.000;16.084;2023-05-09T05:56:34;11.90;99.90
1594;DHT22;790;47.000;16.084;2023-05-09T05:59:32;11.80;99.90
1594;DHT22;790;47.000;16.084;2023-05-09T06:02:24;11.90;99.90
1594;DHT22;790;47.000;16.084;2023-05-09T06:05:24;12.00;99.90
1594;DHT22;790;47.000;16.084;2023-05-09T06:08:30;12.10;99.90
1594;DHT22;790;47.000;16.084;2023-05-09T06:11:30;12.20;99.90
1594;DHT22;790;47.000;16.084;2023-05-09T06:14:27;12.20;99.90
1594;DHT22;790;47.000;16.084;2023-05-09T06:17:21;12.30;99.90
1594;DHT22;790;47.000;16.084;2023-05-09T06:20:15;12.40;99.90
1594;DHT22;790;47.000;16.084;2023-05-09T06:23:01;12.50;99.90
1594;DHT22;790;47.000;16.084;2023-05-09T06:25:55;12.60;99.90
1594;DHT22;790;47.000;16.084;2023-05-09T06:28:55;12.70;99.90
1594;DHT22;790;47.000;16.084;2023-05-09T06:32:01;12.80;99.90
1594;DHT22;790;47.000;16.084;2023-05-09T06:34:52;12.90;99.90
1594;DHT22;790;47.000;16.084;2023-05-09T06:37:54;13.00;99.90
1594;DHT22;790;47.000;16.084;2023-05-09T06:40:46;13.10;99.90
1594;DHT22;790;47.000;16.084;2023-05-09T06:43:45;13.20;99.90
1594;DHT22;790;47.000;16.084;2023-05-09T06:46:44;13.20;99.90
1594;DHT22;790;47.000;16.084;2023-05-09T06:49:38;13.20;99.90
1594;DHT22;790;47.000;16.084;2023-05-09T06:52:42;13.20;99.90
1594;DHT22;790;47.000;16.084;2023-05-09T06:55:27;13.20;99.90
1594;DHT22;790;47.000;16.084;2023-05-09T06:58:21;13.20;99.90
1594;DHT22;790;47.000;16.084;2023-05-09T07:01:24;13.00;99.90
1594;DHT22;790;47.000;16.084;2023-05-09T07:04:16;13.10;99.90
1594;DHT22;790;47.000;16.084;2023-05-09T07:07:08;13.10;99.90
1594;DHT22;790;47.000;16.084;2023-05-09T07:10:03;13.10;99.90
1594;DHT22;790;47.000;16.084;2023-05-09T07:12:49;13.10;99.90
1594;DHT22;790;47.000;16.084;2023-05-09T07:15:51;13.20;99.90
1594;DHT22;790;47.000;16.084;2023-05-09T07:18:37;13.20;99.90
1594;DHT22;790;47.000;16.084;2023-05-09T07:21:33;13.20;99.90
1594;DHT22;790;47.000;16.084;2023-05-09T07:24:21;13.30;99.90
1594;DHT22;790;47.000;16.084;2023-05-09T07:27:23;13.30;99.90
1594;DHT22;790;47.000;16.084;2023-05-09T07:30:13;13.40;99.90
1594;DHT22;790;47.000;16.084;2023-05-09T07:33:08;13.40;99.90
1594;DHT22;790;47.000;16.084;2023-05-09T07:35:58;13.30;99.90
1594;DHT22;790;47.000;16.084;2023-05-09T07:38:44;13.40;99.90
1594;DHT22;790;47.000;16.084;2023-05-09T07:41:48;13.50;99.90
1594;DHT22;790;47.000;16.084;2023-05-09T07:44:39;13.50;99.90
1594;DHT22;790;47.000;16.084;2023-05-09T07:47:28;13.60;99.90
1594;DHT22;790;47.000;16.084;2023-05-09T07:50:24;13.70;99.90
1594;DHT22;790;47.000;16.084;2023-05-09T07:53:10;13.70;99.90
1594;DHT22;790;47.000;16.084;2023-05-09T07:55:44;13.80;99.90
1594;DHT22;790;47.000;16.084;2023-05-09T07:58:36;14.00;99.90
1594;DHT22;790;47.000;16.084;2023-05-09T08:01:16;14.00;99.90
1594;DHT22;790;47.000;16.084;2023-05-09T08:03:47;13.90;99.90
1594;DHT22;790;47.000;16.084;2023-05-09T08:06:17;14.00;99.90
1594;DHT22;790;47.000;16.084;2023-05-09T08:08:53;14.00;99.90
1594;DHT22;790;47.000;16.084;2023-05-09T08:11:25;14.20;99.90
1594;DHT22;790;47.000;16.084;2023-05-09T08:14:21;14.30;99.90
1594;DHT22;790;47.000;16.084;2023-05-09T08:16:53;14.40;99.90
1594;DHT22;790;47.000;16.084;2023-05-09T08:19:34;14.50;99.90
1594;DHT22;790;47.000;16.084;2023-05-09T08:22:17;14.50;99.90
1594;DHT22;790;47.000;16.084;2023-05-09T08:24:50;14.60;99.90
1594;DHT22;790;47.000;16.084;2023-05-09T08:27:18;14.60;99.90
1594;DHT22;790;47.000;16.084;2023-05-09T08:29:50;14.70;99.90
1594;DHT22;790;47.000;16.084;2023-05-09T08:32:34;14.50;99.90
1594;DHT22;790;47.000;16.084;2023-05-09T08:35:04;14.40;99.90
1594;DHT22;790;47.000;16.084;2023-05-09T08:37:51;14.50;99.90
1594;DHT22;790;47.000;16.084;2023-05-09T08:40:40;14.60;99.90
1594;DHT22;790;47.000;16.084;2023-05-09T08:43:09;14.80;99.90
1594;DHT22;790;47.000;16.084;2023-05-09T08:46:05;14.80;99.90
1594;DHT22;790;47.000;16.084;2023-05-09T08:48:40;14.80;99.90
1594;DHT22;790;47.000;16.084;2023-05-09T08:54:04;15.10;99.90
1594;DHT22;790;47.000;16.084;2023-05-09T08:56:45;15.30;99.90
1594;DHT22;790;47.000;16.084;2023-05-09T08:59:31;15.50;99.90
1594;DHT22;790;47.000;16.084;2023-05-09T09:02:11;15.50;99.90
1594;DHT22;790;47.000;16.084;2023-05-09T09:04:41;15.40;99.90
1594;DHT22;790;47.000;16.084;2023-05-09T09:07:10;15.50;99.90
1594;DHT22;790;47.000;16.084;2023-05-09T09:09:38;15.60;99.90
1594;DHT22;790;47.000;16.084;2023-05-09T09:12:32;15.80;99.90
1594;DHT22;790;47.000;16.084;2023-05-09T09:15:14;15.90;99.90
1594;DHT22;790;47.000;16.084;2023-05-09T09:18:02;15.90;99.90
1594;DHT22;790;47.000;16.084;2023-05-09T09:20:38;16.00;99.90
1594;DHT22;790;47.000;16.084;2023-05-09T09:23:23;16.10;99.90
1594;DHT22;790;47.000;16.084;2023-05-09T09:26:06;16.10;99.90
1594;DHT22;790;47.000;16.084;2023-05-09T09:28:37;16.30;99.90
1594;DHT22;790;47.000;16.084;2023-05-09T09:31:23;16.40;99.90
1594;DHT22;790;47.000;16.084;2023-05-09T09:34:05;16.40;99.90
1594;DHT22;790;47.000;16.084;2023-05-09T09:36:38;16.50;99.90
1594;DHT22;790;47.000;16.084;2023-05-09T09:39:12;16.60;99.90
1594;DHT22;790;47.000;16.084;2023-05-09T09:45:16;16.70;99.90
1594;DHT22;790;47.000;16.084;2023-05-09T09:48:15;16.80;99.90
1594;DHT22;790;47.000;16.084;2023-05-09T09:50:49;16.90;99.90
1594;DHT22;790;47.000;16.084;2023-05-09T09:53:37;17.00;99.90
1594;DHT22;790;47.000;16.084;2023-05-09T09:56:08;17.10;99.90
1594;DHT22;790;47.000;16.084;2023-05-09T09:59:07;17.00;99.90
1594;DHT22;790;47.000;16.084;2023-05-09T10:01:55;17.10;99.90
1594;DHT22;790;47.000;16.084;2023-05-09T10:04:40;17.40;99.90
1594;DHT22;790;47.000;16.084;2023-05-09T10:07:21;17.50;99.90
1594;DHT22;790;47.000;16.084;2023-05-09T10:09:52;17.40;99.90
1594;DHT22;790;47.000;16.084;2023-05-09T10:12:56;17.50;99.90
1594;DHT22;790;47.000;16.084;2023-05-09T10:15:42;17.60;99.90
1594;DHT22;790;47.000;16.084;2023-05-09T10:18:27;17.60;99.90
1594;DHT22;790;47.000;16.084;2023-05-09T10:21:00;17.70;99.90
1594;DHT22;790;47.000;16.084;2023-05-09T10:23:36;17.80;99.90
1594;DHT22;790;47.000;16.084;2023-05-09T10:26:36;17.70;99.90
1594;DHT22;790;47.000;16.084;2023-05-09T10:29:17;17.80;99.90
1594;DHT22;790;47.000;16.084;2023-05-09T10:31:52;17.60;99.90
1594;DHT22;790;47.000;16.084;2023-05-09T10:34:50;17.60;99.90
1594;DHT22;790;47.000;16.084;2023-05-09T10:41:05;17.80;99.90
1594;DHT22;790;47.000;16.084;2023-05-09T10:43:46;17.90;99.90
1594;DHT22;790;47.000;16.084;2023-05-09T10:46:29;18.10;99.90
1594;DHT22;790;47.000;16.084;2023-05-09T10:49:08;18.30;99.90
1594;DHT22;790;47.000;16.084;2023-05-09T10:51:40;18.60;99.90
1594;DHT22;790;47.000;16.084;2023-05-09T10:54:25;18.80;99.90
1594;DHT22;790;47.000;16.084;2023-05-09T10:57:22;18.90;99.90
1594;DHT22;790;47.000;16.084;2023-05-09T11:00:05;18.90;99.90
1594;DHT22;790;47.000;16.084;2023-05-09T11:02:35;19.00;99.90
1594;DHT22;790;47.000;16.084;2023-05-09T11:05:13;19.00;99.90
1594;DHT22;790;47.000;16.084;2023-05-09T11:08:17;19.10;99.90
1594;DHT22;790;47.000;16.084;2023-05-09T11:11:05;19.00;99.90
1594;DHT22;790;47.000;16.084;2023-05-09T11:13:57;19.10;99.90
1594;DHT22;790;47.000;16.084;2023-05-09T11:16:58;19.30;99.90
1594;DHT22;790;47.000;16.084;2023-05-09T11:20:16;19.50;99.90
1594;DHT22;790;47.000;16.084;2023-05-09T11:22:44;19.50;99.90
1594;DHT22;790;47.000;16.084;2023-05-09T11:25:16;19.50;99.90
1594;DHT22;790;47.000;16.084;2023-05-09T11:28:24;19.60;99.90
1594;DHT22;790;47.000;16.084;2023-05-09T11:31:11;19.70;99.90
1594;DHT22;790;47.000;16.084;2023-05-09T11:34:00;19.50;99.90
1594;DHT22;790;47.000;16.084;2023-05-09T11:36:35;19.30;99.90
1594;DHT22;790;47.000;16.084;2023-05-09T11:39:27;18.90;99.90
1594;DHT22;790;47.000;16.084;2023-05-09T11:42:06;18.60;99.90
1594;DHT22;790;47.000;16.084;2023-05-09T11:44:50;18.60;99.90
1594;DHT22;790;47.000;16.084;2023-05-09T11:47:24;18.60;99.90
1594;DHT22;790;47.000;16.084;2023-05-09T11:49:54;18.70;99.90
1594;DHT22;790;47.000;16.084;2023-05-09T11:52:22;18.70;99.90
1594;DHT22;790;47.000;16.084;2023-05-09T11:55:29;18.80;99.90
1594;DHT22;790;47.000;16.084;2023-05-09T11:58:10;18.90;99.90
1594;DHT22;790;47.000;16.084;2023-05-09T12:00:43;19.10;99.90
1594;DHT22;790;47.000;16.084;2023-05-09T12:03:30;19.20;99.90
1594;DHT22;790;47.000;16.084;2023-05-09T12:06:15;19.30;99.90
1594;DHT22;790;47.000;16.084;2023-05-09T12:09:19;19.40;99.90
1594;DHT22;790;47.000;16.084;2023-05-09T12:11:52;19.50;99.90
1594;DHT22;790;47.000;16.084;2023-05-09T12:14:33;19.40;99.90
1594;DHT22;790;47.000;16.084;2023-05-09T12:17:15;19.40;99.90
1594;DHT22;790;47.000;16.084;2023-05-09T12:19:57;19.50;99.90
1594;DHT22;790;47.000;16.084;2023-05-09T12:22:35;19.30;99.90
1594;DHT22;790;47.000;16.084;2023-05-09T12:25:09;19.40;99.90
1594;DHT22;790;47.000;16.084;2023-05-09T12:27:43;19.30;99.90
1594;DHT22;790;47.000;16.084;2023-05-09T12:30:22;19.40;99.90
1594;DHT22;790;47.000;16.084;2023-05-09T12:32:54;19.30;99.90
1594;DHT22;790;47.000;16.084;2023-05-09T12:35:33;19.30;99.90
1594;DHT22;790;47.000;16.084;2023-05-09T12:38:13;19.20;99.90
1594;DHT22;790;47.000;16.084;2023-05-09T12:41:01;19.10;99.90
1594;DHT22;790;47.000;16.084;2023-05-09T12:43:47;19.20;99.90
1594;DHT22;790;47.000;16.084;2023-05-09T12:46:28;19.30;99.90
1594;DHT22;790;47.000;16.084;2023-05-09T12:49:04;19.30;99.90
1594;DHT22;790;47.000;16.084;2023-05-09T12:51:58;19.40;99.90
1594;DHT22;790;47.000;16.084;2023-05-09T12:54:41;19.50;99.90
1594;DHT22;790;47.000;16.084;2023-05-09T12:57:31;19.60;99.90
1594;DHT22;790;47.000;16.084;2023-05-09T13:00:05;19.60;99.90
1594;DHT22;790;47.000;16.084;2023-05-09T13:02:37;19.60;99.90
1594;DHT22;790;47.000;16.084;2023-05-09T13:05:17;19.80;99.90
1594;DHT22;790;47.000;16.084;2023-05-09T13:08:25;19.90;99.90
1594;DHT22;790;47.000;16.084;2023-05-09T13:10:58;20.10;99.90
1594;DHT22;790;47.000;16.084;2023-05-09T13:13:37;20.00;99.90
1594;DHT22;790;47.000;16.084;2023-05-09T13:16:22;19.90;99.90
1594;DHT22;790;47.000;16.084;2023-05-09T13:19:12;19.70;99.90
1594;DHT22;790;47.000;16.084;2023-05-09T13:22:03;19.50;99.90
1594;DHT22;790;47.000;16.084;2023-05-09T13:25:02;19.30;99.90
1594;DHT22;790;47.000;16.084;2023-05-09T13:27:32;19.30;99.90
1594;DHT22;790;47.000;16.084;2023-05-09T13:30:05;19.30;99.90
1594;DHT22;790;47.000;16.084;2023-05-09T13:32:57;19.30;99.90
1594;DHT22;790;47.000;16.084;2023-05-09T13:35:45;19.30;99.90
1594;DHT22;790;47.000;16.084;2023-05-09T13:38:21;19.20;99.90
1594;DHT22;790;47.000;16.084;2023-05-09T13:40:57;19.10;99.90
1594;DHT22;790;47.000;16.084;2023-05-09T13:43:24;19.00;99.90
1594;DHT22;790;47.000;16.084;2023-05-09T13:45:53;19.00;99.90
1594;DHT22;790;47.000;16.084;2023-05-09T13:48:25;18.90;99.90
1594;DHT22;790;47.000;16.084;2023-05-09T13:50:52;18.90;99.90
1594;DHT22;790;47.000;16.084;2023-05-09T13:53:22;18.80;99.90
1594;DHT22;790;47.000;16.084;2023-05-09T13:55:49;18.80;99.90
1594;DHT22;790;47.000;16.084;2023-05-09T13:58:28;18.80;99.90
1594;DHT22;790;47.000;16.084;2023-05-09T14:00:57;18.80;99.90
1594;DHT22;790;47.000;16.084;2023-05-09T14:03:30;18.80;99.90
1594;DHT22;790;47.000;16.084;2023-05-09T14:06:04;18.70;99.90
1594;DHT22;790;47.000;16.084;2023-05-09T14:08:34;18.70;99.90
1594;DHT22;790;47.000;16.084;2023-05-09T14:11:03;18.70;99.90
1594;DHT22;790;47.000;16.084;2023-05-09T14:13:31;18.80;99.90
1594;DHT22;790;47.000;16.084;2023-05-09T14:16:00;18.60;99.90
1594;DHT22;790;47.000;16.084;2023-05-09T14:18:30;18.60;99.90
1594;DHT22;790;47.000;16.084;2023-05-09T14:21:01;18.50;99.90
1594;DHT22;790;47.000;16.084;2023-05-09T14:23:30;18.40;99.90
1594;DHT22;790;47.000;16.084;2023-05-09T14:25:57;18.40;99.90
1594;DHT22;790;47.000;16.084;2023-05-09T14:28:26;18.40;99.90
1594;DHT22;790;47.000;16.084;2023-05-09T14:30:57;18.40;99.90
1594;DHT22;790;47.000;16.084;2023-05-09T14:33:30;18.40;99.90
1594;DHT22;790;47.000;16.084;2023-05-09T14:36:06;18.30;99.90
1594;DHT22;790;47.000;16.084;2023-05-09T14:38:36;18.40;99.90
1594;DHT22;790;47.000;16.084;2023-05-09T14:41:20;18.40;99.90
1594;DHT22;790;47.000;16.084;2023-05-09T14:44:26;18.40;99.90
1594;DHT22;790;47.000;16.084;2023-05-09T14:47:06;18.40;99.90
1594;DHT22;790;47.000;16.084;2023-05-09T14:49:37;18.40;99.90
1594;DHT22;790;47.000;16.084;2023-05-09T14:52:09;18.40;99.90
1594;DHT22;790;47.000;16.084;2023-05-09T14:54:43;18.30;99.90
1594;DHT22;790;47.000;16.084;2023-05-09T14:57:15;18.20;99.90
1594;DHT22;790;47.000;16.084;2023-05-09T14:59:50;18.20;99.90
1594;DHT22;790;47.000;16.084;2023-05-09T15:02:29;18.30;99.90
1594;DHT22;790;47.000;16.084;2023-05-09T15:05:02;18.20;99.90
1594;DHT22;790;47.000;16.084;2023-05-09T15:07:54;18.20;99.90
1594;DHT22;790;47.000;16.084;2023-05-09T15:10:38;18.20;99.90
1594;DHT22;790;47.000;16.084;2023-05-09T15:13:09;18.10;99.90
1594;DHT22;790;47.000;16.084;2023-05-09T15:15:41;18.20;99.90
1594;DHT22;790;47.000;16.084;2023-05-09T15:18:25;18.20;99.90
1594;DHT22;790;47.000;16.084;2023-05-09T15:21:00;18.20;99.90
1594;DHT22;790;47.000;16.084;2023-05-09T15:23:53;18.20;99.90
1594;DHT22;790;47.000;16.084;2023-05-09T15:26:31;18.20;99.90
1594;DHT22;790;47.000;16.084;2023-05-09T15:28:59;18.10;99.90
1594;DHT22;790;47.000;16.084;2023-05-09T15:31:50;18.10;99.90
1594;DHT22;790;47.000;16.084;2023-05-09T15:34:22;18.10;99.90
1594;DHT22;790;47.000;16.084;2023-05-09T15:36:57;18.10;99.90
1594;DHT22;790;47.000;16.084;2023-05-09T15:39:30;18.10;99.90
1594;DHT22;790;47.000;16.084;2023-05-09T15:42:11;18.00;99.90
1594;DHT22;790;47.000;16.084;2023-05-09T15:45:07;18.00;99.90
1594;DHT22;790;47.000;16.084;2023-05-09T15:47:38;18.00;99.90
1594;DHT22;790;47.000;16.084;2023-05-09T15:50:26;18.00;99.90
1594;DHT22;790;47.000;16.084;2023-05-09T15:52:55;18.10;99.90
1594;DHT22;790;47.000;16.084;2023-05-09T15:55:27;18.10;99.90
1594;DHT22;790;47.000;16.084;2023-05-09T15:58:03;18.10;99.90
1594;DHT22;790;47.000;16.084;2023-05-09T16:00:46;18.10;99.90
1594;DHT22;790;47.000;16.084;2023-05-09T16:03:20;18.10;99.90
1594;DHT22;790;47.000;16.084;2023-05-09T16:06:19;18.10;99.90
1594;DHT22;790;47.000;16.084;2023-05-09T16:08:48;18.10;99.90
1594;DHT22;790;47.000;16.084;2023-05-09T16:11:29;18.10;99.90
1594;DHT22;790;47.000;16.084;2023-05-09T16:13:58;18.00;99.90
1594;DHT22;790;47.000;16.084;2023-05-09T16:16:36;18.00;99.90
1594;DHT22;790;47.000;16.084;2023-05-09T16:19:08;18.00;99.90
1594;DHT22;790;47.000;16.084;2023-05-09T16:24:32;18.00;99.90
1594;DHT22;790;47.000;16.084;2023-05-09T16:27:03;18.10;99.90
1594;DHT22;790;47.000;16.084;2023-05-09T16:29:46;18.00;99.90
1594;DHT22;790;47.000;16.084;2023-05-09T16:32:18;18.00;99.90
1594;DHT22;790;47.000;16.084;2023-05-09T16:34:56;18.00;99.90
1594;DHT22;790;47.000;16.084;2023-05-09T16:37:35;17.90;99.90
1594;DHT22;790;47.000;16.084;2023-05-09T16:40:26;17.90;99.90
1594;DHT22;790;47.000;16.084;2023-05-09T16:42:58;17.80;99.90
1594;DHT22;790;47.000;16.084;2023-05-09T16:45:45;17.80;99.90
1594;DHT22;790;47.000;16.084;2023-05-09T16:48:22;17.70;99.90
1594;DHT22;790;47.000;16.084;2023-05-09T16:50:50;17.60;99.90
1594;DHT22;790;47.000;16.084;2023-05-09T16:53:21;17.60;99.90
1594;DHT22;790;47.000;16.084;2023-05-09T16:56:07;17.60;99.90
1594;DHT22;790;47.000;16.084;2023-05-09T16:58:39;17.60;99.90
1594;DHT22;790;47.000;16.084;2023-05-09T17:01:20;17.60;99.90
1594;DHT22;790;47.000;16.084;2023-05-09T17:03:54;17.60;99.90
1594;DHT22;790;47.000;16.084;2023-05-09T17:06:33;17.60;99.90
1594;DHT22;790;47.000;16.084;2023-05-09T17:09:06;17.50;99.90
1594;DHT22;790;47.000;16.084;2023-05-09T17:11:44;17.50;99.90
1594;DHT22;790;47.000;16.084;2023-05-09T17:14:14;17.50;99.90
1594;DHT22;790;47.000;16.084;2023-05-09T17:16:41;17.50;99.90
1594;DHT22;790;47.000;16.084;2023-05-09T17:19:17;17.40;99.90
1594;DHT22;790;47.000;16.084;2023-05-09T17:21:48;17.30;99.90
1594;DHT22;790;47.000;16.084;2023-05-09T17:24:27;17.20;99.90
1594;DHT22;790;47.000;16.084;2023-05-09T17:26:56;17.00;99.90
1594;DHT22;790;47.000;16.084;2023-05-09T17:29:24;17.00;99.90
1594;DHT22;790;47.000;16.084;2023-05-09T17:31:54;16.90;99.90
1594;DHT22;790;47.000;16.084;2023-05-09T17:34:23;16.80;99.90
1594;DHT22;790;47.000;16.084;2023-05-09T17:36:51;16.70;99.90
1594;DHT22;790;47.000;16.084;2023-05-09T17:39:19;16.70;99.90
1594;DHT22;790;47.000;16.084;2023-05-09T17:41:46;16.60;99.90
1594;DHT22;790;47.000;16.084;2023-05-09T17:44:16;16.50;99.90
1594;DHT22;790;47.000;16.084;2023-05-09T17:46:46;16.40;99.90
1594;DHT22;790;47.000;16.084;2023-05-09T17:49:16;16.30;99.90
1594;DHT22;790;47.000;16.084;2023-05-09T17:51:57;16.20;99.90
1594;DHT22;790;47.000;16.084;2023-05-09T17:54:25;16.20;99.90
1594;DHT22;790;47.000;16.084;2023-05-09T17:56:53;16.20;99.90
1594;DHT22;790;47.000;16.084;2023-05-09T17:59:29;16.00;99.90
1594;DHT22;790;47.000;16.084;2023-05-09T18:01:56;15.90;99.90